AirNav   TITAN Aviation Fuels
 
 976 users online  

44FD Hard Rock Heliport
Hollywood, Florida, USA

GOING TO HOLLYWOOD?


FAA INFORMATION EFFECTIVE 22 APRIL 2021

Location

FAA Identifier: 44FD
Lat/Long: 26-03-02.6900N 080-12-39.2000W
26-03.044833N 080-12.653333W
26.0507472,-80.2108889
(estimated)
Elevation: 125 ft. / 38 m (estimated)
From city: 5 miles NW of HOLLYWOOD, FL
Time zone: UTC -4 (UTC -5 during Standard Time)
Zip code: 33314

Heliport Operations

Heliport use: Private use. Permission required prior to landing
Activation date: 12/2015
Control tower: no
ARTCC: MIAMI CENTER
FSS: MIAMI FLIGHT SERVICE STATION
Attendance: IREG
Wind indicator: yes
Segmented circle: yes

Heliport Communications

WX ASOS at HWO (3 nm SW): PHONE 954-983-5904
WX ASOS at FLL (4 nm E): 135.0 (954-359-7857)
WX ASOS at FXE (9 nm N): 119.85 (954-772-2537)
WX ASOS at OPF (9 nm SW): 125.9 (305-681-4063)
WX ASOS at PMP (13 nm NE): 120.55 (954-783-3720)
WX ASOS at MIA (16 nm S): 119.15 (305-870-0235)

Nearby radio navigation aids

VOR radial/distance  VOR name  Freq  Var
FLLr246/2.8FORT LAUDERDALE VOR/DME114.4006W
DHPr030/16.8DOLPHIN VORTAC113.9004W
VKZr354/18.2VIRGINIA KEY VOR/DME117.1004W
PBIr193/38.3PALM BEACH VORTAC115.7003W

Heliport Services

Runway Information

Helipad H1

Dimensions: 50 x 50 ft. / 15 x 15 m
Surface: ROOF/TOP
Weight bearing capacity: 
Single wheel: 12.5
Traffic pattern: leftleft

Heliport Ownership and Management from official FAA records

Ownership: Privately-owned
Owner: SEMINOLE TRIBE OF FLORIDA
1 SEMINOLE WAY
HOLLYWOOD, FL 33024
Phone 863-983-7677
Manager: PEDRO RODRIQUEZ
35201 EAGLES LANDING
CLEWISTON, FL 33440
Phone 863-983-7677

Additional Remarks

HELI IS LCTD ON THE TOP FLOOR OF A PARKING GARAGE.
FOR CD CTC MIAMI APCH AT 305-869-5432.

Instrument Procedures

There are no published instrument procedures at 44FD.

Some nearby airports with instrument procedures:

KHWO - North Perry Airport (3 nm SW)
KFLL - Fort Lauderdale/Hollywood International Airport (4 nm E)
KFXE - Fort Lauderdale Executive Airport (9 nm N)
KOPF - Miami-Opa Locka Executive Airport (9 nm SW)
KPMP - Pompano Beach Airpark (13 nm NE)
KMIA - Miami International Airport (16 nm S)
 
Loc | Ops | Rwys | IFR | FBO | Links
Com | Nav | Svcs | Stats | Notes
Aerial photo
No photo
 
Airport distance calculator
Flying to Hard Rock Heliport? Find the distance to fly.

From to 44FD

Sunrise and sunset
Times for 15-May-2021
 Local
(UTC-4)
 Zulu
(UTC)
Morning civil twilight06:1110:11
Sunrise06:3610:36
Sunset19:5923:59
Evening civil twilight20:2400:24

Current date and time
Zulu (UTC)  15-May-2021 13:43:45
Local (UTC-4)  15-May-2021 09:43:45
 
METAR
KHWO 
3nm S 
151253Z 36006KT 10SM CLR 26/21 A3010 RMK AO2 SLP191 T02560206
KFLL 
3nm E 
151253Z 36005KT 10SM SCT031 SCT250 26/22 A3007 RMK AO2 SLP183 T02610217
KOPF 
9nm SW 
151253Z 03008KT 10SM CLR 27/20 A3009 RMK AO2 SLP188 T02670200
KFXE 
9nm N 
151253Z 35006KT 10SM SCT034 25/21 A3008 RMK AO2 SLP188 T02500206
KPMP 
13nm NE 
151253Z 01008KT 10SM CLR 26/19 A3008 RMK AO2 SLP187 T02560194
KMIA 
17nm S 
151253Z VRB06KT 10SM FEW025 BKN250 26/21 A3008 RMK AO2 SLP185 T02610211 $
TAF
KFLL 
3nm E 
151127Z 1512/1618 35006KT P6SM FEW030 SCT050 FM151300 03010KT P6SM SCT030 SCT050 FM151800 05016G25KT P6SM VCSH SCT035 BKN050 FM160100 08012KT P6SM FEW035 SCT100 BKN250 FM161400 06015G22KT P6SM SCT035 BKN060
KOPF 
9nm SW 
151127Z 1512/1612 35006KT P6SM FEW030 SCT050 FM151300 03010KT P6SM SCT030 SCT050 FM151800 05015G25KT P6SM VCSH SCT035 BKN050 FM160100 07010KT P6SM FEW035 SCT100 BKN250
KFXE 
9nm N 
151127Z 1512/1612 34006KT P6SM FEW030 SCT050 FM151300 02009KT P6SM SCT030 SCT050 FM151800 05015G22KT P6SM VCSH SCT035 BKN050 FM160000 07012KT P6SM FEW035 SCT100 BKN250
KMIA 
17nm S 
151127Z 1512/1618 35006KT P6SM FEW030 SCT050 FM151300 03008KT P6SM SCT030 SCT050 FM151800 05015G25KT P6SM VCSH SCT035 BKN050 FM160100 07010KT P6SM FEW035 SCT100 BKN250 FM161400 06015G22KT P6SM SCT035 BKN060
NOTAMs
Click for the latest NOTAMs
NOTAMs are issued by the DoD/FAA and will open in a separate window not controlled by AirNav.

 

 
 

Would you like to see your business listed on this page?

 If your business provides an interesting product or service to pilots, flight crews, aircraft, or users of the Hard Rock Heliport, you should consider listing it here.  To start the listing process, click on the button below
 
Add a business
 

Other Pages about Hard Rock Heliport

Update a link
 
Copyright © AirNav, LLC. All rights reserved. Privacy Policy  Contact